Time;durP1;ratioP1;P1;durP2;ratioP2;P2;SDS_P1;SDS_P2;PMS_P1;PMS_P2;Temp;Humidity;BMP_temperature;BMP_pressure;BME280_temperature;BME280_humidity;BME280_pressure;Samples;Min_cycle;Max_cycle;Signal;HPM_P1;HPM_P2
2023/03/15 00:01:31;;;;;;;3.08;1.00;;;;;;;8.23;67.39;98989.44;5094818;28;20085;-59
2023/03/15 00:03:57;;;;;;;7.53;1.35;;;;;;;8.22;67.77;99001.69;5093320;28;20048;-59
2023/03/15 00:06:23;;;;;;;5.07;1.15;;;;;;;8.44;67.95;99009.66;5094436;28;20040;-59
2023/03/15 00:08:48;;;;;;;6.97;1.08;;;;;;;8.21;66.57;99009.56;5094389;28;20115;-58
2023/03/15 00:11:18;;;;;;;5.15;1.20;;;;;;;8.46;67.52;98997.41;5094365;28;20043;-59
2023/03/15 00:13:45;;;;;;;5.50;1.33;;;;;;;8.39;66.82;99001.97;5092777;28;20128;-59
2023/03/15 00:16:16;;;;;;;6.30;1.27;;;;;;;8.52;67.19;99009.41;5094555;28;20074;-57
2023/03/15 00:18:41;;;;;;;5.32;1.10;;;;;;;8.68;67.04;99012.34;5094298;28;20032;-58
2023/03/15 00:21:07;;;;;;;3.85;0.90;;;;;;;8.60;67.52;99020.47;5094134;28;20498;-61
2023/03/15 00:23:32;;;;;;;6.38;1.30;;;;;;;8.72;66.12;99033.13;5094039;28;20039;-59
2023/03/15 00:25:58;;;;;;;4.93;0.95;;;;;;;8.19;65.32;99043.63;5094026;28;20035;-58
2023/03/15 00:28:23;;;;;;;3.78;1.00;;;;;;;8.44;67.96;99050.69;5094104;28;20042;-59
2023/03/15 00:30:48;;;;;;;9.35;1.30;;;;;;;8.42;66.89;99037.66;5092845;28;20039;-59
2023/03/15 00:33:15;;;;;;;4.28;1.55;;;;;;;8.23;67.53;99047.88;5092784;28;20040;-57
2023/03/15 00:35:44;;;;;;;5.63;1.17;;;;;;;8.41;67.76;99050.78;5093903;28;20463;-59
2023/03/15 00:38:09;;;;;;;6.25;1.38;;;;;;;8.31;67.32;99060.69;5093899;28;20040;-59
2023/03/15 00:40:36;;;;;;;7.05;1.45;;;;;;;8.21;67.34;99060.13;5093699;28;20491;-58
2023/03/15 00:43:02;;;;;;;4.97;1.50;;;;;;;8.27;67.95;99074.78;5093843;28;20475;-58
2023/03/15 00:45:27;;;;;;;7.50;1.35;;;;;;;8.22;68.26;99071.44;5094055;28;20036;-58
2023/03/15 00:47:54;;;;;;;5.07;1.17;;;;;;;8.25;67.65;99079.19;5093888;28;20484;-58
2023/03/15 00:50:21;;;;;;;11.50;1.60;;;;;;;8.13;67.17;99086.53;5093827;28;20063;-58
2023/03/15 00:52:47;;;;;;;7.22;1.65;;;;;;;8.13;67.53;99083.91;5094026;28;20032;-58
2023/03/15 00:55:15;;;;;;;6.75;1.50;;;;;;;7.85;66.99;99094.41;5092473;28;20482;-58
2023/03/15 00:57:42;;;;;;;7.53;1.50;;;;;;;7.91;66.62;99093.38;5093687;28;20028;-58
2023/03/15 01:00:10;;;;;;;6.13;1.40;;;;;;;7.91;67.64;99101.22;5093511;28;20101;-58
2023/03/15 01:02:36;;;;;;;7.18;1.20;;;;;;;7.62;66.76;99102.97;5092123;28;20502;-58
2023/03/15 01:05:05;;;;;;;7.70;1.73;;;;;;;7.70;67.51;99101.84;5093398;28;20028;-57
2023/03/15 01:07:32;;;;;;;9.85;1.70;;;;;;;7.58;67.93;99105.69;5093509;28;20036;-58
2023/03/15 01:09:58;;;;;;;7.47;1.65;;;;;;;7.48;66.64;99126.03;5093243;28;20445;-58
2023/03/15 01:12:24;;;;;;;7.70;1.63;;;;;;;7.78;66.90;99110.31;5093633;28;20031;-58
2023/03/15 01:14:49;;;;;;;5.90;1.63;;;;;;;7.37;66.71;99117.63;5093613;28;20067;-58
2023/03/15 01:17:15;;;;;;;10.52;1.77;;;;;;;7.59;68.01;99112.66;5093815;28;20061;-58
2023/03/15 01:19:40;;;;;;;6.50;1.38;;;;;;;7.72;66.77;99128.84;5092211;28;20387;-58
2023/03/15 01:22:06;;;;;;;5.40;1.60;;;;;;;7.72;66.45;99127.06;5093175;28;20133;-58
2023/03/15 01:24:31;;;;;;;8.60;1.52;;;;;;;7.55;66.93;99127.56;5093216;28;20048;-58
2023/03/15 01:26:57;;;;;;;8.18;1.40;;;;;;;7.59;66.65;99134.44;5093428;28;20035;-58
2023/03/15 01:29:22;;;;;;;5.20;1.15;;;;;;;7.50;66.53;99147.78;5092355;28;20382;-58
2023/03/15 01:31:48;;;;;;;6.55;1.17;;;;;;;7.52;67.85;99148.56;5092163;28;20473;-58
2023/03/15 01:34:13;;;;;;;10.88;1.45;;;;;;;7.45;67.50;99160.09;5094639;28;20520;-58
2023/03/15 01:36:38;;;;;;;6.20;1.45;;;;;;;7.49;67.72;99160.84;5097276;28;20463;-58
2023/03/15 01:39:04;;;;;;;8.57;1.23;;;;;;;7.53;66.58;99171.19;5096894;28;20558;-58
2023/03/15 01:41:29;;;;;;;6.30;1.40;;;;;;;7.51;65.82;99172.16;5097498;28;20113;-58
2023/03/15 01:43:55;;;;;;;8.77;1.50;;;;;;;7.27;66.73;99163.22;5096101;28;20039;-57
2023/03/15 01:46:33;;;;;;;6.63;1.25;;;;;;;7.36;65.50;99169.06;5097370;28;20036;-58
2023/03/15 01:49:06;;;;;;;10.05;1.88;;;;;;;7.29;66.78;99184.94;5097302;28;20031;-58
2023/03/15 01:51:50;;;;;;;6.50;1.25;;;;;;;7.39;65.44;99192.50;5093858;28;20044;-58
2023/03/15 01:54:31;;;;;;;7.47;1.20;;;;;;;7.61;65.42;99199.72;5096420;27;20032;-58
2023/03/15 01:57:02;;;;;;;5.25;1.27;;;;;;;7.57;66.06;99192.88;5094934;28;20093;-58
2023/03/15 01:59:32;;;;;;;4.72;1.50;;;;;;;7.45;66.33;99209.75;5096818;28;20035;-58
2023/03/15 02:01:59;;;;;;;9.73;1.52;;;;;;;7.47;66.75;99207.97;5096832;28;20133;-58
2023/03/15 02:04:33;;;;;;;6.93;1.35;;;;;;;7.50;66.14;99210.50;5093899;28;20040;-58
2023/03/15 02:07:01;;;;;;;7.88;1.70;;;;;;;7.16;65.09;99221.84;5095873;28;20024;-57
2023/03/15 02:10:11;;;;;;;8.32;1.58;;;;;;;7.16;66.07;99229.69;5096405;28;20020;-58
2023/03/15 02:12:44;;;;;;;5.75;1.27;;;;;;;6.97;66.98;99244.09;5082071;28;20043;-57
2023/03/15 02:15:10;;;;;;;6.00;1.27;;;;;;;6.86;67.81;99228.72;5075639;28;20070;-59
2023/03/15 02:17:44;;;;;;;7.10;1.40;;;;;;;6.89;66.02;99236.44;5076270;28;20373;-58
2023/03/15 02:20:28;;;;;;;6.22;1.40;;;;;;;6.68;66.68;99236.13;5099684;28;20035;-58
2023/03/15 02:22:59;;;;;;;;;;;;;;;6.65;65.38;99237.91;5110687;28;20023;-57
2023/03/15 02:25:31;;;;;;;9.93;1.42;;;;;;;6.35;66.37;99247.31;5103776;27;19966;-57
2023/03/15 02:27:57;;;;;;;5.38;1.70;;;;;;;6.64;66.17;99246.66;5095877;28;20111;-57
2023/03/15 02:30:23;;;;;;;11.60;1.70;;;;;;;6.84;66.05;99254.00;5096324;28;20115;-57
2023/03/15 02:32:48;;;;;;;6.53;1.38;;;;;;;6.70;65.65;99244.78;5096389;28;20043;-57
2023/03/15 02:35:23;;;;;;;11.63;1.73;;;;;;;6.39;65.44;99261.16;5094959;28;20040;-56
2023/03/15 02:37:49;;;;;;;7.18;1.60;;;;;;;6.54;65.15;99263.44;5096328;28;20044;-57
2023/03/15 02:40:24;;;;;;;6.80;1.40;;;;;;;6.56;65.07;99263.38;5096482;28;20161;-58
2023/03/15 02:43:02;;;;;;;10.00;1.63;;;;;;;6.84;64.14;99279.25;5095942;28;20107;-58
2023/03/15 02:45:30;;;;;;;8.50;1.83;;;;;;;6.45;64.98;99271.44;5093473;28;20032;-57
2023/03/15 02:47:56;;;;;;;7.65;1.33;;;;;;;6.50;65.18;99280.03;5095739;28;20028;-57
2023/03/15 02:50:22;;;;;;;6.13;1.40;;;;;;;6.48;65.80;99289.66;5095630;28;20422;-57
2023/03/15 02:52:47;;;;;;;5.45;1.23;;;;;;;6.85;64.82;99286.19;5094699;28;20445;-57
2023/03/15 02:55:13;;;;;;;12.07;1.70;;;;;;;6.61;64.39;99293.69;5094557;28;20032;-57
2023/03/15 02:57:38;;;;;;;7.85;1.70;;;;;;;6.86;64.62;99301.84;5094860;28;20039;-57
2023/03/15 03:00:12;;;;;;;8.60;1.73;;;;;;;6.75;63.99;99305.59;5095815;28;20043;-57
2023/03/15 03:02:42;;;;;;;7.68;1.42;;;;;;;6.72;64.76;99314.34;5095493;28;20455;-57
2023/03/15 03:05:08;;;;;;;8.10;1.70;;;;;;;6.74;64.82;99309.06;5076496;28;20064;-56
2023/03/15 03:07:34;;;;;;;7.88;1.77;;;;;;;6.66;64.86;99325.78;5081762;28;20486;-58
2023/03/15 03:10:00;;;;;;;6.65;1.70;;;;;;;6.64;64.73;99335.38;5092908;28;20032;-57
2023/03/15 03:12:25;;;;;;;6.32;1.40;;;;;;;6.75;64.86;99326.47;5094231;28;20032;-57
2023/03/15 03:14:51;;;;;;;10.68;1.80;;;;;;;6.63;64.58;99343.28;5094497;28;20028;-56
2023/03/15 03:17:16;;;;;;;7.60;1.58;;;;;;;6.70;64.96;99337.00;5095589;28;20028;-56
2023/03/15 03:19:42;;;;;;;7.40;1.45;;;;;;;6.69;64.36;99340.50;5093496;28;20048;-56
2023/03/15 03:22:07;;;;;;;8.77;1.98;;;;;;;6.70;63.78;99339.59;5095321;28;20101;-55
2023/03/15 03:24:33;;;;;;;7.18;1.40;;;;;;;6.96;64.08;99346.84;5091696;28;20468;-57
2023/03/15 03:26:59;;;;;;;7.90;1.55;;;;;;;6.76;64.40;99359.50;5093935;28;20024;-56
2023/03/15 03:29:25;;;;;;;4.90;1.40;;;;;;;6.65;64.21;99380.63;5093327;28;20471;-57
2023/03/15 03:31:51;;;;;;;7.88;1.83;;;;;;;6.87;64.51;99381.03;5093899;28;20493;-57
2023/03/15 03:34:17;;;;;;;7.60;1.38;;;;;;;7.03;64.02;99384.16;5075308;28;20036;-57
2023/03/15 03:36:42;;;;;;;6.20;1.23;;;;;;;7.46;63.21;99384.00;5083445;28;20064;-57
2023/03/15 03:39:09;;;;;;;7.80;1.20;;;;;;;7.55;62.56;99394.19;5089079;28;20143;-57
2023/03/15 03:41:34;;;;;;;6.55;1.40;;;;;;;7.65;62.38;99402.66;5093538;28;20043;-59
2023/03/15 03:43:59;;;;;;;8.10;1.42;;;;;;;7.56;62.19;99398.53;5097728;28;20044;-56
2023/03/15 03:46:27;;;;;;;7.22;1.15;;;;;;;7.64;61.97;99407.03;5092778;28;20058;-56
2023/03/15 03:48:53;;;;;;;5.78;1.50;;;;;;;7.48;61.48;99408.31;5092653;28;20368;-56
2023/03/15 03:51:18;;;;;;;7.68;1.60;;;;;;;7.46;62.00;99415.34;5088547;28;20032;-57
2023/03/15 03:53:44;;;;;;;6.10;1.42;;;;;;;7.73;61.63;99424.25;5093812;28;20059;-55
2023/03/15 03:56:09;;;;;;;6.25;1.25;;;;;;;7.72;61.68;99434.75;5093053;28;20036;-57
2023/03/15 03:58:35;;;;;;;8.15;1.20;;;;;;;7.55;61.19;99427.34;5093697;28;20032;-57
2023/03/15 04:01:00;;;;;;;7.30;1.40;;;;;;;7.41;62.10;99438.09;5093781;28;20514;-57
2023/03/15 04:03:26;;;;;;;7.30;1.40;;;;;;;7.43;61.31;99451.16;5093084;28;20032;-56
2023/03/15 04:06:00;;;;;;;9.32;1.40;;;;;;;7.18;61.39;99445.63;5094023;28;20032;-56
2023/03/15 04:08:27;;;;;;;6.15;1.23;;;;;;;7.35;61.30;99456.56;5093885;28;20392;-56
2023/03/15 04:10:54;;;;;;;8.93;1.40;;;;;;;7.64;61.28;99461.94;5094118;28;20043;-56
2023/03/15 04:13:21;;;;;;;4.05;1.30;;;;;;;7.72;61.03;99451.28;5081427;28;20040;-56
2023/03/15 04:15:47;;;;;;;3.78;1.15;;;;;;;7.42;61.54;99465.97;5074262;28;20024;-57
2023/03/15 04:18:13;;;;;;;11.18;1.45;;;;;;;7.51;60.86;99470.13;5084454;28;20471;-56
2023/03/15 04:20:45;;;;;;;7.75;1.30;;;;;;;7.47;61.82;99479.78;5093044;28;20024;-56
2023/03/15 04:23:18;;;;;;;4.43;1.30;;;;;;;7.94;60.66;99480.41;5093973;28;20036;-57
2023/03/15 04:25:47;;;;;;;7.38;1.25;;;;;;;8.09;60.31;99487.84;5090092;28;20506;-56
2023/03/15 04:28:12;;;;;;;9.13;1.70;;;;;;;7.99;60.00;99483.75;5092512;28;20048;-56
2023/03/15 04:30:38;;;;;;;4.18;1.17;;;;;;;7.62;60.20;99497.75;5093389;28;20028;-57
2023/03/15 04:33:04;;;;;;;6.25;1.20;;;;;;;7.79;60.60;99492.09;5091259;28;20502;-56
2023/03/15 04:35:33;;;;;;;7.13;1.40;;;;;;;7.74;60.25;99493.09;5093843;28;20386;-57
2023/03/15 04:37:59;;;;;;;7.00;1.38;;;;;;;7.79;60.29;99499.94;5092943;28;20468;-56
2023/03/15 04:40:25;;;;;;;5.50;0.88;;;;;;;7.83;60.01;99500.72;5093030;28;20039;-57
2023/03/15 04:42:55;;;;;;;8.43;1.38;;;;;;;7.60;60.24;99512.59;5093281;28;20055;-57
2023/03/15 04:45:22;;;;;;;4.65;1.17;;;;;;;7.50;60.30;99505.88;5091702;28;20051;-57
2023/03/15 04:47:49;;;;;;;10.60;1.38;;;;;;;7.17;60.77;99517.91;5093758;28;20089;-56
2023/03/15 04:50:15;;;;;;;8.25;1.58;;;;;;;7.13;61.50;99524.09;5092183;28;20437;-56
2023/03/15 04:52:40;;;;;;;7.30;1.40;;;;;;;7.18;61.48;99529.22;5093609;28;20588;-55
2023/03/15 04:55:06;;;;;;;6.72;1.05;;;;;;;7.49;60.79;99529.41;5093830;28;20040;-56
2023/03/15 04:57:31;;;;;;;6.22;1.23;;;;;;;7.49;60.73;99519.81;5092840;28;20036;-56
2023/03/15 04:59:57;;;;;;;8.07;1.40;;;;;;;7.49;60.58;99525.03;5093861;28;20060;-56
2023/03/15 05:02:22;;;;;;;3.80;0.98;;;;;;;7.21;60.96;99534.38;5092541;28;20024;-56
2023/03/15 05:04:48;;;;;;;4.63;1.10;;;;;;;7.18;61.04;99531.81;5093316;28;20032;-56
2023/03/15 05:07:13;;;;;;;7.50;1.27;;;;;;;7.21;61.04;99535.25;5093935;28;20039;-57
2023/03/15 05:09:39;;;;;;;5.50;1.30;;;;;;;7.32;60.86;99542.84;5105812;28;20043;-57
2023/03/15 05:12:05;;;;;;;8.40;1.25;;;;;;;7.35;60.58;99553.25;5093093;28;20038;-56
2023/03/15 05:14:31;;;;;;;7.13;1.45;;;;;;;7.50;60.54;99560.75;5093734;28;20035;-57
2023/03/15 05:16:58;;;;;;;7.38;1.40;;;;;;;7.62;60.31;99573.56;5094413;28;20058;-57
2023/03/15 05:19:25;;;;;;;6.13;1.20;;;;;;;7.83;59.84;99574.81;5092141;28;20032;-57
2023/03/15 05:21:50;;;;;;;7.18;1.45;;;;;;;7.86;59.52;99571.28;5090646;28;20036;-57
2023/03/15 05:24:16;;;;;;;5.18;1.52;;;;;;;7.97;59.30;99579.72;5091701;28;20028;-56
2023/03/15 05:26:45;;;;;;;10.27;1.63;;;;;;;7.94;59.54;99587.66;5091679;28;20035;-57
2023/03/15 05:29:14;;;;;;;5.30;1.20;;;;;;;7.89;59.43;99592.09;5091612;28;20575;-57
2023/03/15 05:31:40;;;;;;;7.95;1.67;;;;;;;7.64;59.87;99610.13;5092037;28;20059;-57
2023/03/15 05:34:06;;;;;;;4.95;1.40;;;;;;;7.82;59.73;99603.59;5088864;28;20063;-58
2023/03/15 05:36:33;;;;;;;9.18;1.50;;;;;;;7.98;59.28;99607.63;5091407;28;20024;-57
2023/03/15 05:38:58;;;;;;;8.05;1.67;;;;;;;7.89;59.31;99616.50;5092416;28;20055;-57
2023/03/15 05:41:24;;;;;;;4.88;1.23;;;;;;;7.62;59.69;99624.97;5089907;28;20036;-56
2023/03/15 05:43:50;;;;;;;7.97;1.70;;;;;;;7.59;59.32;99627.66;5088840;28;20044;-58
2023/03/15 05:46:16;;;;;;;8.00;1.98;;;;;;;7.61;59.47;99636.31;5087908;28;20484;-58
2023/03/15 05:48:41;;;;;;;8.30;1.60;;;;;;;7.82;59.16;99640.22;5092098;28;20071;-57
2023/03/15 05:51:07;;;;;;;6.15;1.65;;;;;;;7.83;58.77;99647.19;5091915;28;20040;-57
2023/03/15 05:53:33;;;;;;;9.65;1.65;;;;;;;7.88;58.15;99653.16;5092003;28;20043;-57
2023/03/15 05:55:58;;;;;;;7.00;1.50;;;;;;;7.97;58.38;99647.72;5092316;28;20050;-57
2023/03/15 05:58:24;;;;;;;6.22;1.27;;;;;;;8.00;58.47;99649.41;5092636;28;20047;-57
2023/03/15 06:00:49;;;;;;;6.20;1.30;;;;;;;8.11;57.93;99658.75;5093008;28;20036;-55
2023/03/15 06:03:15;;;;;;;5.05;1.25;;;;;;;7.83;57.52;99660.28;5093011;28;20036;-57
2023/03/15 06:05:41;;;;;;;3.83;1.17;;;;;;;8.02;57.80;99672.06;5092397;28;20036;-57
2023/03/15 06:08:07;;;;;;;5.00;1.10;;;;;;;8.06;57.85;99683.31;5087825;28;20036;-59
2023/03/15 06:10:32;;;;;;;6.80;1.00;;;;;;;8.25;57.31;99675.88;5091562;28;20024;-57
2023/03/15 06:12:58;;;;;;;4.50;1.20;;;;;;;8.61;56.77;99684.63;5071387;28;20376;-58
2023/03/15 06:15:24;;;;;;;5.72;1.67;;;;;;;8.45;56.43;99681.53;5054202;28;20060;-57
2023/03/15 06:17:49;;;;;;;3.83;0.80;;;;;;;8.74;56.09;99682.59;5053965;28;20395;-58
2023/03/15 06:20:15;;;;;;;7.07;1.30;;;;;;;8.91;55.84;99696.13;5074017;28;20029;-57
2023/03/15 06:22:41;;;;;;;6.45;1.15;;;;;;;8.82;55.72;99686.75;5075820;28;20059;-57
2023/03/15 06:25:07;;;;;;;7.55;1.58;;;;;;;8.74;54.47;99686.06;5075686;28;20037;-58
2023/03/15 06:27:32;;;;;;;5.55;1.30;;;;;;;8.71;54.78;99703.63;5093594;28;20111;-58
2023/03/15 06:29:58;;;;;;;6.10;1.58;;;;;;;9.05;55.15;99703.59;5094510;28;20039;-57
2023/03/15 06:32:24;;;;;;;9.05;1.25;;;;;;;9.08;54.04;99709.63;5096201;28;20042;-57
2023/03/15 06:34:49;;;;;;;7.63;1.73;;;;;;;9.33;54.59;99715.06;5094853;28;20085;-58
2023/03/15 06:37:15;;;;;;;8.52;2.08;;;;;;;9.18;54.60;99718.13;5095089;28;20040;-57
2023/03/15 06:39:40;;;;;;;7.05;1.33;;;;;;;9.44;54.27;99727.91;5095988;28;20036;-58
2023/03/15 06:42:07;;;;;;;5.88;1.05;;;;;;;9.14;53.91;99719.13;5096136;28;20040;-58
2023/03/15 06:44:34;;;;;;;10.45;1.60;;;;;;;9.25;54.40;99730.16;5095822;28;20040;-58
2023/03/15 06:46:59;;;;;;;5.32;1.17;;;;;;;9.39;54.38;99740.28;5095911;28;20109;-57
2023/03/15 06:49:25;;;;;;;7.32;1.77;;;;;;;8.80;55.09;99745.28;5093262;28;20541;-57
2023/03/15 06:51:50;;;;;;;8.30;1.20;;;;;;;8.83;55.11;99756.56;5093358;28;20112;-57
2023/03/15 06:54:16;;;;;;;7.25;1.50;;;;;;;9.03;54.79;99769.16;5094134;28;20035;-57
2023/03/15 06:56:42;;;;;;;7.35;1.73;;;;;;;9.20;54.56;99767.88;5093652;28;20035;-57
2023/03/15 06:59:07;;;;;;;5.63;1.52;;;;;;;9.03;54.92;99768.31;5095787;28;20074;-57
2023/03/15 07:01:33;;;;;;;7.32;1.67;;;;;;;9.27;54.24;99779.94;5094830;28;20432;-57
2023/03/15 07:03:59;;;;;;;5.05;1.20;;;;;;;9.37;54.20;99791.88;5095533;28;20032;-57
2023/03/15 07:06:27;;;;;;;5.53;1.77;;;;;;;9.13;54.65;99796.00;5094284;28;20032;-57
2023/03/15 07:08:52;;;;;;;5.95;1.52;;;;;;;9.28;54.20;99789.50;5092052;28;20040;-58
2023/03/15 07:11:18;;;;;;;6.43;1.73;;;;;;;9.65;53.62;99796.41;5074127;28;20094;-58
2023/03/15 07:13:44;;;;;;;6.75;1.38;;;;;;;9.40;53.17;99804.06;5075378;28;20079;-58
2023/03/15 07:16:09;;;;;;;3.45;1.17;;;;;;;9.31;52.92;99799.94;5094033;28;20032;-58
2023/03/15 07:18:34;;;;;;;6.43;1.67;;;;;;;9.38;54.18;99806.75;5093328;28;20032;-57
2023/03/15 07:21:02;;;;;;;3.92;1.20;;;;;;;9.63;53.67;99797.31;5093306;28;20055;-58
2023/03/15 07:23:27;;;;;;;5.43;1.17;;;;;;;9.28;53.17;99800.00;5094567;28;20028;-57
2023/03/15 07:25:54;;;;;;;3.10;1.00;;;;;;;9.68;53.55;99801.56;5093284;28;20169;-58
2023/03/15 07:28:21;;;;;;;6.57;1.30;;;;;;;9.56;53.12;99816.72;5094288;28;20423;-58
2023/03/15 07:30:58;;;;;;;7.32;1.52;;;;;;;9.02;52.60;99806.75;5093679;28;20123;-57
2023/03/15 07:33:25;;;;;;;4.97;1.60;;;;;;;8.52;54.32;99819.25;5093577;28;20039;-57
2023/03/15 07:35:55;;;;;;;4.47;1.30;;;;;;;9.28;54.01;99811.34;5094821;28;20036;-57
2023/03/15 07:38:22;;;;;;;9.23;1.50;;;;;;;9.35;53.74;99814.69;5094832;28;20052;-57
2023/03/15 07:40:48;;;;;;;10.13;2.00;;;;;;;8.76;54.30;99827.47;5094912;28;20032;-57
2023/03/15 07:43:13;;;;;;;6.00;1.30;;;;;;;9.34;53.83;99821.69;5093530;28;20403;-57
2023/03/15 07:45:41;;;;;;;5.22;1.77;;;;;;;9.19;54.13;99831.69;5094624;28;20044;-57
2023/03/15 07:48:07;;;;;;;6.47;1.63;;;;;;;9.66;53.09;99827.00;5095211;28;20036;-57
2023/03/15 07:50:32;;;;;;;4.57;1.38;;;;;;;9.96;52.63;99827.91;5095071;28;20040;-57
2023/03/15 07:52:58;;;;;;;6.82;1.60;;;;;;;10.16;52.46;99835.22;5094861;28;20066;-58
2023/03/15 07:55:24;;;;;;;8.65;1.60;;;;;;;9.36;52.74;99837.38;5093931;28;20085;-57
2023/03/15 07:57:50;;;;;;;4.93;1.35;;;;;;;9.46;53.28;99838.00;5094487;28;20040;-56
2023/03/15 08:00:17;;;;;;;4.97;1.50;;;;;;;10.00;52.38;99837.41;5094448;28;20035;-57
2023/03/15 08:02:42;;;;;;;7.15;1.17;;;;;;;9.95;51.89;99849.81;5093229;28;20416;-58
2023/03/15 08:05:09;;;;;;;5.13;1.35;;;;;;;9.76;52.45;99859.94;5090001;28;20055;-57
2023/03/15 08:07:35;;;;;;;6.38;1.40;;;;;;;9.52;52.77;99858.81;5100468;28;20036;-57
2023/03/15 08:10:01;;;;;;;6.88;2.15;;;;;;;9.79;51.56;99844.97;5092023;28;20047;-57
2023/03/15 08:12:27;;;;;;;6.45;2.50;;;;;;;10.15;51.71;99852.75;5090458;28;20403;-58
2023/03/15 08:14:53;;;;;;;9.68;3.28;;;;;;;9.99;50.98;99857.56;5093252;28;20024;-58
2023/03/15 08:17:18;;;;;;;8.32;2.38;;;;;;;10.45;51.29;99860.66;5094047;28;20064;-58
2023/03/15 08:19:44;;;;;;;6.45;1.65;;;;;;;10.63;50.12;99865.38;5094411;28;20039;-58
2023/03/15 08:22:10;;;;;;;6.75;1.95;;;;;;;10.47;50.63;99849.22;5092983;28;20036;-57
2023/03/15 08:24:35;;;;;;;8.38;2.38;;;;;;;10.66;50.60;99856.56;5094003;28;20119;-58
2023/03/15 08:27:01;;;;;;;7.43;1.75;;;;;;;11.07;50.16;99856.13;5094159;28;20046;-57
2023/03/15 08:29:27;;;;;;;6.07;1.50;;;;;;;10.69;49.26;99870.47;5094001;28;20032;-58
2023/03/15 08:31:53;;;;;;;8.93;2.60;;;;;;;10.56;50.74;99871.72;5093909;28;20089;-58
2023/03/15 08:34:20;;;;;;;7.97;1.90;;;;;;;10.48;50.34;99866.69;5102303;28;20039;-57
2023/03/15 08:36:46;;;;;;;5.32;1.70;;;;;;;10.90;49.18;99881.22;5102376;28;20479;-58
2023/03/15 08:39:12;;;;;;;7.68;1.77;;;;;;;10.47;50.16;99886.00;5093643;28;20094;-57
2023/03/15 08:41:37;;;;;;;5.35;1.33;;;;;;;10.64;49.50;99895.16;5092643;28;20122;-57
2023/03/15 08:44:03;;;;;;;4.47;1.40;;;;;;;10.93;49.96;99887.25;5092655;28;20392;-57
2023/03/15 08:46:28;;;;;;;4.50;1.40;;;;;;;10.32;50.11;99896.94;5093935;28;20064;-58
2023/03/15 08:48:54;;;;;;;4.00;1.48;;;;;;;9.84;51.06;99902.59;5092971;28;20035;-57
2023/03/15 08:51:20;;;;;;;8.95;2.20;;;;;;;10.12;51.41;99900.06;5093816;28;20036;-58
2023/03/15 08:53:46;;;;;;;11.68;2.60;;;;;;;9.79;51.71;99912.34;5092362;28;20032;-57
2023/03/15 08:56:12;;;;;;;8.10;2.17;;;;;;;9.96;52.19;99925.88;5093693;28;20043;-58
2023/03/15 08:58:38;;;;;;;8.18;2.35;;;;;;;9.49;55.21;99941.03;5093505;28;20036;-57
2023/03/15 09:01:03;;;;;;;6.97;1.83;;;;;;;8.77;57.41;99933.97;5092571;28;20039;-58
2023/03/15 09:03:31;;;;;;;9.48;2.70;;;;;;;8.64;57.83;99918.50;5093482;28;20028;-57
2023/03/15 09:05:58;;;;;;;13.35;3.83;;;;;;;8.60;58.03;99940.41;5093555;28;20119;-57
2023/03/15 09:08:25;;;;;;;13.05;3.72;;;;;;;8.15;58.77;99948.25;5093635;28;20036;-57
2023/03/15 09:10:54;;;;;;;11.40;3.17;;;;;;;8.33;57.50;99943.56;5093918;28;20044;-58
2023/03/15 09:13:20;;;;;;;15.27;3.67;;;;;;;8.93;56.61;99945.84;5107274;28;20036;-58
2023/03/15 09:15:48;;;;;;;10.32;3.08;;;;;;;8.72;56.44;99941.06;5114052;28;20035;-58
2023/03/15 09:18:14;;;;;;;8.88;2.60;;;;;;;9.35;54.59;99936.16;5112557;28;20038;-58
2023/03/15 09:20:40;;;;;;;8.32;2.05;;;;;;;9.49;54.01;99946.28;5113806;28;20032;-59
2023/03/15 09:23:05;;;;;;;6.65;1.63;;;;;;;9.89;53.40;99934.81;5113619;28;20032;-58
2023/03/15 09:25:31;;;;;;;6.88;1.38;;;;;;;9.97;52.17;99952.97;5112473;28;20042;-58
2023/03/15 09:27:56;;;;;;;3.05;0.90;;;;;;;9.69;50.10;99968.56;5113424;28;20035;-58
2023/03/15 09:30:21;;;;;;;2.72;1.25;;;;;;;10.04;51.22;99970.31;5110058;28;20036;-58
2023/03/15 09:32:47;;;;;;;4.18;1.27;;;;;;;10.40;51.14;99967.63;5093409;28;20115;-58
2023/03/15 09:35:16;;;;;;;3.75;1.30;;;;;;;10.49;49.40;99978.75;5091915;28;20387;-58
2023/03/15 09:37:42;;;;;;;4.40;1.15;;;;;;;9.96;50.96;99978.38;5093391;28;20131;-58
2023/03/15 09:40:25;;;;;;;5.93;1.30;;;;;;;10.58;48.76;99986.38;5092995;28;20079;-58
2023/03/15 09:43:06;;;;;;;;;;;;;;;11.09;48.62;99987.53;5093779;28;20032;-58
2023/03/15 09:45:44;;;;;;;8.50;1.52;;;;;;;11.01;47.37;99987.78;5093206;28;19918;-58
2023/03/15 09:48:18;;;;;;;3.88;1.30;;;;;;;10.56;48.27;100003.06;5093461;28;20051;-58
2023/03/15 09:50:53;;;;;;;10.90;2.78;;;;;;;10.35;47.47;100007.16;5093139;28;20486;-58
2023/03/15 09:53:40;;;;;;;6.40;1.90;;;;;;;10.24;46.53;100009.16;5093344;28;20046;-58
2023/03/15 09:56:23;;;;;;;6.40;1.80;;;;;;;10.59;46.29;100011.72;5096922;28;20077;-58
2023/03/15 09:58:51;;;;;;;6.38;1.83;;;;;;;11.10;47.92;99999.78;5096885;28;20020;-59
2023/03/15 10:01:17;;;;;;;6.28;2.42;;;;;;;10.93;46.18;100009.91;5096699;28;20491;-58
2023/03/15 10:03:51;;;;;;;4.93;1.27;;;;;;;11.02;45.46;100026.31;5095474;28;20035;-58
2023/03/15 10:06:26;;;;;;;6.07;1.40;;;;;;;10.80;46.17;100030.44;5096870;28;20036;-59
2023/03/15 10:09:00;;;;;;;5.93;1.42;;;;;;;11.02;45.39;100023.66;5096663;28;20035;-58
2023/03/15 10:11:37;;;;;;;5.05;1.08;;;;;;;10.95;45.92;100016.84;5096637;28;20463;-58
2023/03/15 10:14:41;;;;;;;6.95;0.98;;;;;;;10.94;46.30;100035.31;5096523;28;20032;-58
2023/03/15 10:17:11;;;;;;;6.00;1.13;;;;;;;11.77;45.25;100020.53;5014316;28;20045;-58
2023/03/15 10:20:05;;;;;;;3.80;1.02;;;;;;;11.96;42.92;100021.66;5080539;28;20508;-58
2023/03/15 10:22:43;;;;;;;;;;;;;;;12.64;41.52;100020.19;5096221;28;20038;-58
2023/03/15 10:25:28;;;;;;;5.85;1.52;;;;;;;13.00;42.25;100030.31;5096508;28;20371;-58
2023/03/15 10:27:56;;;;;;;6.18;1.60;;;;;;;12.32;43.52;100061.69;5096515;28;20024;-59
2023/03/15 10:30:25;;;;;;;4.68;1.23;;;;;;;11.54;46.83;100073.88;5096436;28;20028;-58
2023/03/15 10:33:13;;;;;;;4.60;1.40;;;;;;;10.65;50.56;100086.03;5096472;28;20031;-59
2023/03/15 10:35:38;;;;;;;7.70;1.67;;;;;;;10.63;49.79;100088.72;5093717;28;20040;-57
2023/03/15 10:38:15;;;;;;;4.47;1.30;;;;;;;9.97;51.25;100095.56;5095353;28;20109;-58
2023/03/15 10:40:45;;;;;;;2.92;1.20;;;;;;;9.74;52.89;100083.00;5094999;28;20028;-57
2023/03/15 10:43:19;;;;;;;3.63;0.95;;;;;;;9.88;52.53;100078.28;5101541;28;20047;-58
2023/03/15 10:46:20;;;;;;;4.55;1.10;;;;;;;10.02;53.21;100077.97;5109198;28;20064;-58
2023/03/15 10:48:52;;;;;;;6.15;1.52;;;;;;;10.55;52.31;100065.25;5094416;28;20044;-58
2023/03/15 10:51:26;;;;;;;7.90;1.95;;;;;;;10.55;52.12;100057.38;5115402;28;20036;-58
2023/03/15 10:53:51;;;;;;;8.15;1.35;;;;;;;10.49;50.91;100060.19;5115858;28;20042;-58
2023/03/15 10:56:24;;;;;;;9.55;2.75;;;;;;;9.79;50.11;100068.00;5116456;28;20029;-58
2023/03/15 10:58:52;;;;;;;9.07;2.53;;;;;;;10.09;51.49;100068.16;5116336;28;20111;-58
2023/03/15 11:01:33;;;;;;;7.88;1.65;;;;;;;10.20;50.95;100071.38;5116049;28;20498;-58
2023/03/15 11:04:05;;;;;;;5.05;1.70;;;;;;;9.96;50.72;100072.00;5114864;28;20442;-58
2023/03/15 11:06:40;;;;;;;5.53;1.60;;;;;;;9.97;50.39;100068.47;5112905;28;20066;-58
2023/03/15 11:09:17;;;;;;;7.72;1.52;;;;;;;10.19;50.93;100076.69;5115551;28;20270;-58
2023/03/15 11:11:55;;;;;;;4.88;1.50;;;;;;;10.30;50.77;100077.31;5115763;28;20030;-58
2023/03/15 11:14:21;;;;;;;7.90;1.80;;;;;;;10.59;49.59;100074.78;5116048;28;20027;-58
2023/03/15 11:16:51;;;;;;;7.55;1.67;;;;;;;10.33;48.96;100071.97;5116002;28;20063;-58
2023/03/15 11:19:24;;;;;;;5.80;1.35;;;;;;;10.90;48.76;100070.47;5115814;28;20028;-59
2023/03/15 11:21:50;;;;;;;6.18;1.33;;;;;;;11.34;47.81;100069.19;5114702;28;20024;-58
2023/03/15 11:24:32;;;;;;;3.67;0.90;;;;;;;11.41;45.77;100070.75;5115741;28;20039;-58
2023/03/15 11:27:03;;;;;;;5.53;1.40;;;;;;;11.79;45.19;100061.66;5115567;28;20073;-57
2023/03/15 11:29:31;;;;;;;4.07;1.00;;;;;;;11.98;44.44;100061.09;5115707;28;20111;-57
2023/03/15 11:32:01;;;;;;;9.80;3.72;;;;;;;11.89;43.88;100072.81;5115631;28;20034;-59
2023/03/15 11:34:42;;;;;;;10.10;2.90;;;;;;;12.40;43.27;100081.66;5109310;28;20535;-58
2023/03/15 11:37:19;;;;;;;8.80;2.92;;;;;;;12.52;42.25;100071.56;5093593;28;20538;-58
2023/03/15 11:40:13;;;;;;;5.13;2.15;;;;;;;13.07;39.82;100066.09;5095586;28;20115;-58
2023/03/15 11:42:47;;;;;;;5.63;1.58;;;;;;;13.00;39.90;100065.44;5092782;28;20024;-57
2023/03/15 11:45:30;;;;;;;5.85;1.60;;;;;;;12.83;40.28;100068.72;5094923;28;20035;-57